KCNY/CNY METAR and TAF weather

Enter ICAO airport designator
Station Type Date Time Source
KCNY METAR 2019/10/21 21:53 UTC NOAA

KCNY 212153Z AUTO 30006G15KT 10SM CLR 15/M08 A3013 RMK AO2 SLP199 T01501078


Station Type Date Time Source
KCNY Decoded METAR 2019/10/21 21:53 UTC NOAA

MOAB CANYONLANDS FIELD, UT, United States (KCNY) 38-46N 109-45W 1390M
Oct 21, 2019 - 05:53 PM EDT / 2019.10.21 2153 UTC
Wind: from the WNW (300 degrees) at 7 MPH (6 KT) gusting to 17 MPH (15 KT):0
Visibility: 10 mile(s):0
Sky conditions: clear
Temperature: 59.0 F (15.0 C)
Dew Point: 18.0 F (-7.8 C)
Relative Humidity: 19%
Pressure (altimeter): 30.13 in. Hg (1020 hPa)
ob: KCNY 212153Z AUTO 30006G15KT 10SM CLR 15/M08 A3013 RMK AO2 SLP199 T01501078
cycle: 22

Station Type Date Time Source
KCNY TAF 2019/10/21 18:45 UTC NOAA

TAF KCNY 211741Z 2118/2218 22007KT P6SM BKN090
FM212000 28010KT P6SM SKC
FM212100 28010G18KT P6SM SKC
FM212300 30010KT P6SM SKC
FM220700 VRB04KT P6SM SKC

Example: see airport list